metar

METAR weather report parser

npm install metar
6 downloads in the last week
18 downloads in the last month

metar.js

METAR (Meteorological Aviation Report) parser for Javascript

Demo: http://epeli.github.io/metar.js/

Install

node.js

npm install metar

browser

<script src="metar.js"></script>

Example

Get reports from http://weather.noaa.gov/pub/data/observations/metar/stations/

var parseMETAR = require("metar");

console.log(parseMETAR("EFJY 172120Z AUTO 30004KT 260V330 CAVOK 11/10 Q1008"));
npm loves you